createdAt,value
2022-10-02T00:01:50.740Z,45.50
2022-10-02T00:04:22.186Z,45.50
2022-10-02T00:06:50.920Z,45.30
2022-10-02T00:09:24.479Z,45.20
2022-10-02T00:11:54.829Z,44.90
2022-10-02T00:14:22.491Z,44.90
2022-10-02T00:16:50.819Z,44.90
2022-10-02T00:19:19.555Z,44.70
2022-10-02T00:22:02.324Z,44.50
2022-10-02T00:24:34.246Z,44.20
2022-10-02T00:27:04.660Z,44.10
2022-10-02T00:29:40.007Z,44.30
2022-10-02T00:32:16.559Z,43.80
2022-10-02T00:34:53.020Z,43.80
2022-10-02T00:37:22.908Z,43.10
2022-10-02T00:40:00.528Z,43.90
2022-10-02T00:42:50.859Z,43.60
2022-10-02T00:45:54.233Z,43.00
2022-10-02T00:48:37.237Z,43.00
2022-10-02T00:51:09.230Z,43.00
2022-10-02T00:53:41.881Z,43.00
2022-10-02T00:56:14.941Z,42.80
2022-10-02T00:58:50.857Z,42.50
2022-10-02T01:01:19.890Z,42.60
2022-10-02T01:03:53.108Z,42.60
2022-10-02T01:06:20.833Z,42.20
2022-10-02T01:08:48.569Z,42.30
2022-10-02T01:11:17.667Z,42.10
2022-10-02T01:13:45.385Z,41.80
2022-10-02T01:16:13.280Z,41.80
2022-10-02T01:18:41.033Z,41.70
2022-10-02T01:21:11.651Z,41.70
2022-10-02T01:23:42.840Z,41.40
2022-10-02T01:26:11.833Z,41.20
2022-10-02T01:28:39.495Z,41.30
2022-10-02T01:31:10.146Z,41.10
2022-10-02T01:33:38.156Z,41.00
2022-10-02T01:36:06.075Z,40.90
2022-10-02T01:38:33.784Z,40.80
2022-10-02T01:41:01.499Z,40.60
2022-10-02T01:43:32.134Z,40.50
2022-10-02T01:46:05.463Z,40.30
2022-10-02T01:48:40.889Z,40.20
2022-10-02T01:51:27.073Z,39.90
2022-10-02T01:53:58.303Z,40.10
2022-10-02T01:56:29.157Z,40.10
2022-10-02T01:59:01.172Z,39.80
2022-10-02T02:01:35.827Z,39.70
2022-10-02T02:04:05.866Z,39.60
2022-10-02T02:06:34.802Z,39.80
2022-10-02T02:09:08.988Z,39.70
2022-10-02T02:11:38.161Z,39.60
2022-10-02T02:14:08.477Z,39.60
2022-10-02T02:16:40.151Z,39.50
2022-10-02T02:19:10.767Z,39.50
2022-10-02T02:21:41.434Z,39.50
2022-10-02T02:24:10.920Z,39.40
2022-10-02T02:26:38.927Z,39.50
2022-10-02T02:29:08.469Z,39.30
2022-10-02T02:31:38.460Z,39.40
2022-10-02T02:34:07.619Z,39.30
2022-10-02T02:36:38.006Z,39.20
2022-10-02T02:39:08.436Z,38.90
2022-10-02T02:41:38.921Z,39.10
2022-10-02T02:44:10.627Z,39.30
2022-10-02T02:47:00.252Z,39.20
2022-10-02T02:49:29.159Z,39.20
2022-10-02T02:51:57.053Z,39.40
2022-10-02T02:54:28.842Z,39.20
2022-10-02T02:56:56.550Z,39.20
2022-10-02T02:59:25.773Z,39.20
2022-10-02T03:01:53.848Z,39.10
2022-10-02T03:04:21.585Z,39.20
2022-10-02T03:06:50.250Z,39.30
2022-10-02T03:09:19.971Z,39.10
2022-10-02T03:11:52.346Z,39.00
2022-10-02T03:14:38.283Z,38.90
2022-10-02T03:17:09.196Z,38.60
2022-10-02T03:19:41.458Z,38.90
2022-10-02T03:22:13.533Z,38.80
2022-10-02T03:24:45.157Z,38.80
2022-10-02T03:27:13.586Z,39.00
2022-10-02T03:29:45.132Z,38.90
2022-10-02T03:32:13.019Z,39.30
2022-10-02T03:34:40.679Z,39.50
2022-10-02T03:37:08.384Z,39.40
2022-10-02T03:39:36.017Z,39.50
2022-10-02T03:42:04.036Z,39.40
2022-10-02T03:44:31.697Z,39.50
2022-10-02T03:47:00.662Z,39.50
2022-10-02T03:49:28.737Z,39.60
2022-10-02T03:51:56.378Z,39.70
2022-10-02T03:54:24.019Z,39.70
2022-10-02T03:56:55.311Z,39.70
2022-10-02T03:59:31.315Z,39.80
2022-10-02T04:02:00.480Z,39.70
2022-10-02T04:04:29.710Z,39.80
2022-10-02T04:06:58.950Z,39.70
2022-10-02T04:09:28.571Z,39.80
2022-10-02T04:11:58.016Z,39.80
2022-10-02T04:14:28.220Z,39.70
2022-10-02T04:16:58.599Z,39.60
2022-10-02T04:19:30.367Z,39.40
2022-10-02T04:22:00.243Z,39.60
2022-10-02T04:24:30.636Z,39.80
2022-10-02T04:27:01.962Z,39.60
2022-10-02T04:29:33.029Z,39.70
2022-10-02T04:32:05.930Z,39.70
2022-10-02T04:34:34.916Z,39.60
2022-10-02T04:37:10.681Z,39.90
2022-10-02T04:39:52.906Z,40.00
2022-10-02T04:42:37.714Z,40.70
2022-10-02T04:45:17.147Z,40.10
2022-10-02T04:48:17.704Z,40.10
2022-10-02T04:50:49.832Z,40.10
2022-10-02T04:53:24.314Z,40.30
2022-10-02T04:56:04.475Z,40.30
2022-10-02T04:58:40.288Z,40.30
2022-10-02T05:01:11.291Z,40.50
2022-10-02T05:03:48.889Z,40.60
2022-10-02T05:06:25.306Z,40.50
2022-10-02T05:09:00.690Z,40.50
2022-10-02T05:11:50.821Z,40.50
2022-10-02T05:14:33.605Z,40.50
2022-10-02T05:17:13.662Z,40.70
2022-10-02T05:20:00.668Z,40.70
2022-10-02T05:22:57.869Z,40.60
2022-10-02T05:25:39.104Z,40.80
2022-10-02T05:28:17.537Z,40.70
2022-10-02T05:30:47.606Z,40.70
2022-10-02T05:33:33.092Z,40.60
2022-10-02T05:36:11.495Z,40.80
2022-10-02T05:38:51.635Z,40.80
2022-10-02T05:41:20.841Z,40.90
2022-10-02T05:43:49.931Z,40.80
2022-10-02T05:46:19.876Z,41.10
2022-10-02T05:48:49.732Z,41.00
2022-10-02T05:51:19.431Z,40.90
2022-10-02T05:53:50.476Z,41.00
2022-10-02T05:56:21.979Z,41.10
2022-10-02T05:58:51.323Z,41.20
2022-10-02T06:01:21.002Z,41.10
2022-10-02T06:03:49.977Z,41.30
2022-10-02T06:06:19.443Z,41.40
2022-10-02T06:08:50.672Z,41.50
2022-10-02T06:11:19.827Z,41.80
2022-10-02T06:13:48.491Z,41.40
2022-10-02T06:16:19.589Z,41.30
2022-10-02T06:18:49.120Z,41.40
2022-10-02T06:21:23.724Z,41.60
2022-10-02T06:23:53.547Z,41.60
2022-10-02T06:26:27.594Z,41.60
2022-10-02T06:28:57.721Z,41.60
2022-10-02T06:31:28.953Z,41.80
2022-10-02T06:33:56.664Z,41.70
2022-10-02T06:36:35.904Z,41.60
2022-10-02T06:39:20.428Z,41.60
2022-10-02T06:41:54.107Z,41.60
2022-10-02T06:44:23.632Z,41.60
2022-10-02T06:46:59.840Z,42.30
2022-10-02T06:49:35.429Z,41.60
2022-10-02T06:52:08.556Z,41.70
2022-10-02T06:54:47.067Z,41.70
2022-10-02T06:57:30.459Z,41.70
2022-10-02T07:00:05.358Z,41.70
2022-10-02T07:02:42.623Z,41.70
2022-10-02T07:05:26.497Z,41.70
2022-10-02T07:07:57.780Z,41.70
2022-10-02T07:10:31.319Z,41.60
2022-10-02T07:13:11.952Z,41.70
2022-10-02T07:16:11.699Z,41.60
2022-10-02T07:18:51.024Z,41.70
2022-10-02T07:21:23.138Z,41.90
2022-10-02T07:23:56.750Z,41.80
2022-10-02T07:26:43.424Z,41.80
2022-10-02T07:29:18.896Z,41.80
2022-10-02T07:31:50.402Z,41.90
2022-10-02T07:34:27.428Z,41.80
2022-10-02T07:36:59.102Z,42.00
2022-10-02T07:39:40.446Z,41.90
2022-10-02T07:42:16.773Z,41.80
2022-10-02T07:44:57.965Z,41.80
2022-10-02T07:47:42.956Z,41.70
2022-10-02T07:50:13.074Z,42.00
2022-10-02T07:52:44.646Z,41.90
2022-10-02T07:55:16.060Z,41.80
2022-10-02T07:57:49.324Z,41.80
2022-10-02T08:00:18.785Z,41.90
2022-10-02T08:02:50.828Z,42.00
2022-10-02T08:05:20.619Z,42.10
2022-10-02T08:07:50.662Z,42.30
2022-10-02T08:10:21.323Z,42.60
2022-10-02T08:12:52.238Z,42.20
2022-10-02T08:15:20.370Z,42.50
2022-10-02T08:17:50.006Z,42.30
2022-10-02T08:20:24.524Z,42.00
2022-10-02T08:22:56.166Z,42.10
2022-10-02T08:25:26.123Z,42.00
2022-10-02T08:27:58.522Z,42.10
2022-10-02T08:30:26.285Z,42.50
2022-10-02T08:32:54.585Z,42.60
2022-10-02T08:35:22.741Z,42.60
2022-10-02T08:38:12.651Z,42.60
2022-10-02T08:41:16.918Z,42.40
2022-10-02T08:44:26.198Z,42.80
2022-10-02T08:47:14.976Z,43.40
2022-10-02T08:50:07.586Z,43.40
2022-10-02T08:53:05.722Z,42.70
2022-10-02T08:55:44.255Z,41.20
2022-10-02T08:58:30.900Z,41.40
2022-10-02T09:01:06.639Z,41.20
2022-10-02T09:03:54.170Z,41.60
2022-10-02T09:06:50.297Z,41.70
2022-10-02T09:09:50.358Z,42.30
2022-10-02T09:12:58.089Z,43.20
2022-10-02T09:15:30.833Z,43.90
2022-10-02T09:18:10.088Z,44.00
2022-10-02T09:20:42.569Z,44.70
2022-10-02T09:23:56.830Z,44.70
2022-10-02T09:26:34.930Z,45.70
2022-10-02T09:29:30.839Z,45.50
2022-10-02T09:32:24.251Z,45.70
2022-10-02T09:35:02.619Z,45.70
2022-10-02T09:38:05.235Z,45.60
2022-10-02T09:40:48.665Z,45.80
2022-10-02T09:43:46.716Z,45.70
2022-10-02T09:46:47.169Z,45.50
2022-10-02T09:49:25.400Z,45.20
2022-10-02T09:52:23.082Z,45.00
2022-10-02T09:55:27.279Z,45.20
2022-10-02T09:58:23.788Z,45.30
2022-10-02T10:01:02.778Z,45.50
2022-10-02T10:04:09.116Z,45.30
2022-10-02T10:06:51.955Z,45.80
2022-10-02T10:09:47.171Z,46.40
2022-10-02T10:12:55.527Z,46.10
2022-10-02T10:15:49.207Z,45.40
2022-10-02T10:18:43.623Z,45.30
2022-10-02T10:21:37.090Z,44.90
2022-10-02T10:24:49.959Z,46.10
2022-10-02T10:27:30.201Z,46.30
2022-10-02T10:30:19.895Z,46.00
2022-10-02T10:33:19.960Z,45.90
2022-10-02T10:35:53.916Z,45.90
2022-10-02T10:38:42.320Z,45.80
2022-10-02T10:41:25.864Z,45.80
2022-10-02T10:44:14.644Z,45.00
2022-10-02T10:47:18.147Z,45.00
2022-10-02T10:50:02.266Z,44.30
2022-10-02T10:52:38.964Z,44.70
2022-10-02T10:55:13.011Z,45.00
2022-10-02T10:57:59.894Z,43.30
2022-10-02T11:00:29.883Z,42.20
2022-10-02T11:03:18.991Z,42.10
2022-10-02T11:06:23.053Z,41.10
2022-10-02T11:09:05.180Z,42.60
2022-10-02T11:11:36.911Z,43.20
2022-10-02T11:14:13.646Z,43.60
2022-10-02T11:17:09.070Z,43.70
2022-10-02T11:19:42.386Z,44.40
2022-10-02T11:22:19.989Z,44.80
2022-10-02T11:25:13.409Z,42.70
2022-10-02T11:28:02.717Z,40.70
2022-10-02T11:30:32.424Z,40.70
2022-10-02T11:33:51.207Z,40.10
2022-10-02T11:36:46.692Z,39.50
2022-10-02T11:39:16.170Z,39.80
2022-10-02T11:42:05.528Z,40.80
2022-10-02T11:44:40.349Z,40.50
2022-10-02T11:47:28.008Z,40.70
2022-10-02T11:50:24.734Z,41.10
2022-10-02T11:53:43.514Z,40.90
2022-10-02T11:56:26.720Z,41.50
2022-10-02T11:58:59.134Z,41.60
2022-10-02T12:01:32.101Z,42.20
2022-10-02T12:04:07.209Z,42.10
2022-10-02T12:06:45.463Z,42.60
2022-10-02T12:09:17.920Z,42.90
2022-10-02T12:11:49.383Z,42.50
2022-10-02T12:14:25.378Z,41.20
2022-10-02T12:17:07.614Z,41.60
2022-10-02T12:20:08.305Z,41.00
2022-10-02T12:22:55.792Z,40.40
2022-10-02T12:25:51.132Z,40.20
2022-10-02T12:28:23.055Z,40.10
2022-10-02T12:30:52.915Z,40.30
2022-10-02T12:33:28.045Z,40.60
2022-10-02T12:36:34.677Z,40.40
2022-10-02T12:39:08.892Z,40.70
2022-10-02T12:42:07.957Z,40.70
2022-10-02T12:44:56.309Z,40.90
2022-10-02T12:47:56.719Z,40.20
2022-10-02T12:50:34.616Z,39.70
2022-10-02T12:53:23.687Z,41.20
2022-10-02T12:56:24.614Z,42.60
2022-10-02T12:58:58.146Z,42.40
2022-10-02T13:01:55.294Z,42.80
2022-10-02T13:04:37.923Z,42.00
2022-10-02T13:07:28.537Z,42.30
2022-10-02T13:09:57.492Z,42.70
2022-10-02T13:12:33.994Z,42.70
2022-10-02T13:15:22.177Z,42.80
2022-10-02T13:17:57.383Z,42.80
2022-10-02T13:20:29.317Z,42.80
2022-10-02T13:23:02.764Z,43.20
2022-10-02T13:25:44.152Z,43.40
2022-10-02T13:28:21.147Z,43.60
2022-10-02T13:30:52.342Z,43.80
2022-10-02T13:33:31.420Z,43.60
2022-10-02T13:36:08.915Z,44.30
2022-10-02T13:38:51.549Z,44.10
2022-10-02T13:41:26.889Z,44.10
2022-10-02T13:44:01.736Z,44.00
2022-10-02T13:46:39.665Z,43.80
2022-10-02T13:49:13.080Z,43.80
2022-10-02T13:51:45.511Z,43.70
2022-10-02T13:54:33.304Z,43.70
2022-10-02T13:57:04.608Z,43.80
2022-10-02T13:59:49.496Z,43.70
2022-10-02T14:02:34.787Z,43.50
2022-10-02T14:05:06.625Z,43.20
2022-10-02T14:07:45.050Z,43.50
2022-10-02T14:10:19.949Z,43.90
2022-10-02T14:12:55.798Z,43.80
2022-10-02T14:15:32.271Z,42.60
2022-10-02T14:18:13.812Z,42.90
2022-10-02T14:20:45.382Z,43.30
2022-10-02T14:23:29.553Z,43.20
2022-10-02T14:26:03.076Z,43.50
2022-10-02T14:29:04.924Z,43.70
2022-10-02T14:31:52.976Z,43.80
2022-10-02T14:34:37.098Z,43.50
2022-10-02T14:37:43.325Z,43.90
2022-10-02T14:40:13.400Z,43.70
2022-10-02T14:42:53.959Z,44.30
2022-10-02T14:45:34.759Z,43.90
2022-10-02T14:48:10.477Z,43.20
2022-10-02T14:50:43.318Z,44.30
2022-10-02T14:53:20.329Z,44.10
2022-10-02T14:56:10.059Z,42.70
2022-10-02T14:58:43.581Z,42.80
2022-10-02T15:01:21.179Z,43.20
2022-10-02T15:04:11.670Z,42.10
2022-10-02T15:06:52.767Z,43.50
2022-10-02T15:09:23.474Z,42.90
2022-10-02T15:11:58.215Z,42.60
2022-10-02T15:14:27.711Z,42.30
2022-10-02T15:17:16.854Z,42.10
2022-10-02T15:19:50.019Z,42.30
2022-10-02T15:22:20.544Z,42.10
2022-10-02T15:25:00.961Z,42.50
2022-10-02T15:27:31.188Z,41.50
2022-10-02T15:30:26.956Z,41.60
2022-10-02T15:33:15.852Z,41.40
2022-10-02T15:36:10.792Z,41.30
2022-10-02T15:38:53.410Z,40.60
2022-10-02T15:41:41.506Z,41.30
2022-10-02T15:44:11.376Z,40.80
2022-10-02T15:46:48.825Z,41.60
2022-10-02T15:49:19.740Z,40.90
2022-10-02T15:52:01.251Z,41.10
2022-10-02T15:54:36.382Z,40.80
2022-10-02T15:57:22.591Z,41.20
2022-10-02T15:59:57.435Z,41.00
2022-10-02T16:02:32.671Z,41.50
2022-10-02T16:05:09.211Z,42.00
2022-10-02T16:08:03.774Z,42.40
2022-10-02T16:10:33.924Z,42.30
2022-10-02T16:13:21.694Z,42.40
2022-10-02T16:15:52.213Z,42.70
2022-10-02T16:18:37.465Z,42.90
2022-10-02T16:21:26.584Z,43.30
2022-10-02T16:24:42.894Z,43.20
2022-10-02T16:27:19.254Z,43.30
2022-10-02T16:29:55.123Z,43.40
2022-10-02T16:32:27.173Z,43.70
2022-10-02T16:35:17.571Z,44.00
2022-10-02T16:37:46.520Z,44.60
2022-10-02T16:40:26.763Z,44.30
2022-10-02T16:43:14.355Z,43.80
2022-10-02T16:45:50.980Z,44.20
2022-10-02T16:48:22.030Z,44.30
2022-10-02T16:51:08.996Z,44.20
2022-10-02T16:53:38.008Z,43.90
2022-10-02T16:56:12.208Z,44.10
2022-10-02T16:58:43.786Z,44.20
2022-10-02T17:01:23.783Z,44.20
2022-10-02T17:04:16.330Z,44.20
2022-10-02T17:06:46.336Z,44.30
2022-10-02T17:09:17.049Z,44.50
2022-10-02T17:11:47.818Z,44.50
2022-10-02T17:14:18.248Z,44.60
2022-10-02T17:16:53.056Z,44.70
2022-10-02T17:19:23.877Z,44.70
2022-10-02T17:21:53.293Z,44.80
2022-10-02T17:24:32.391Z,45.10
2022-10-02T17:27:08.144Z,44.90
2022-10-02T17:29:39.171Z,45.40
2022-10-02T17:32:10.061Z,45.20
2022-10-02T17:34:46.352Z,45.80
2022-10-02T17:37:38.505Z,45.30
2022-10-02T17:40:09.686Z,45.50
2022-10-02T17:42:42.008Z,45.10
2022-10-02T17:45:18.991Z,45.20
2022-10-02T17:47:53.657Z,45.30
2022-10-02T17:50:39.072Z,45.30
2022-10-02T17:53:32.951Z,45.60
2022-10-02T17:56:30.605Z,45.40
2022-10-02T17:59:16.379Z,45.70
2022-10-02T18:01:47.323Z,45.70
2022-10-02T18:04:19.848Z,45.70
2022-10-02T18:06:53.013Z,45.70
2022-10-02T18:09:37.456Z,46.50
2022-10-02T18:12:19.487Z,45.90
2022-10-02T18:15:18.107Z,45.90
2022-10-02T18:17:54.221Z,45.90
2022-10-02T18:20:32.888Z,46.00
2022-10-02T18:23:08.405Z,45.90
2022-10-02T18:25:42.680Z,45.80
2022-10-02T18:28:33.023Z,45.80
2022-10-02T18:31:07.973Z,45.80
2022-10-02T18:33:52.322Z,45.70
2022-10-02T18:36:29.058Z,45.80
2022-10-02T18:38:59.847Z,46.10
2022-10-02T18:41:50.662Z,46.00
2022-10-02T18:44:48.695Z,46.20
2022-10-02T18:47:28.763Z,46.20
2022-10-02T18:50:03.473Z,46.20
2022-10-02T18:52:50.929Z,46.30
2022-10-02T18:55:25.694Z,46.40
2022-10-02T18:58:00.820Z,46.60
2022-10-02T19:00:38.543Z,46.50
2022-10-02T19:03:15.909Z,46.50
2022-10-02T19:05:47.119Z,46.60
2022-10-02T19:08:20.092Z,46.70
2022-10-02T19:10:47.991Z,46.60
2022-10-02T19:13:22.730Z,47.00
2022-10-02T19:15:52.249Z,46.80
2022-10-02T19:18:21.116Z,46.60
2022-10-02T19:20:54.299Z,46.60
2022-10-02T19:23:26.388Z,46.60
2022-10-02T19:25:54.655Z,46.60
2022-10-02T19:28:25.143Z,46.70
2022-10-02T19:30:53.691Z,46.70
2022-10-02T19:33:22.723Z,46.60
2022-10-02T19:35:51.807Z,46.70
2022-10-02T19:38:30.858Z,46.70
2022-10-02T19:41:00.345Z,46.90
2022-10-02T19:43:28.954Z,46.90
2022-10-02T19:45:58.321Z,47.00
2022-10-02T19:48:26.856Z,47.00
2022-10-02T19:50:58.123Z,47.00
2022-10-02T19:53:29.428Z,47.00
2022-10-02T19:55:57.770Z,47.10
2022-10-02T19:58:29.284Z,47.80
2022-10-02T20:00:57.594Z,47.10
2022-10-02T20:03:25.780Z,47.10
2022-10-02T20:05:54.575Z,47.20
2022-10-02T20:08:23.934Z,47.50
2022-10-02T20:10:58.100Z,47.70
2022-10-02T20:13:27.987Z,47.60
2022-10-02T20:16:15.728Z,47.80
2022-10-02T20:18:43.409Z,48.10
2022-10-02T20:21:13.583Z,47.90
2022-10-02T20:23:41.564Z,48.30
2022-10-02T20:26:12.637Z,48.50
2022-10-02T20:28:43.752Z,48.50
2022-10-02T20:31:14.167Z,48.50
2022-10-02T20:33:42.985Z,48.60
2022-10-02T20:36:13.967Z,49.00
2022-10-02T20:38:44.288Z,48.70
2022-10-02T20:41:15.836Z,49.00
2022-10-02T20:43:44.932Z,49.10
2022-10-02T20:46:46.435Z,49.00
2022-10-02T20:49:40.167Z,49.40
2022-10-02T20:52:27.315Z,49.40
2022-10-02T20:54:58.125Z,49.60
2022-10-02T20:58:04.406Z,49.40
2022-10-02T21:00:40.849Z,49.90
2022-10-02T21:03:32.037Z,49.50
2022-10-02T21:06:27.658Z,49.90
2022-10-02T21:09:08.955Z,49.80
2022-10-02T21:12:08.561Z,49.70
2022-10-02T21:15:05.772Z,49.80
2022-10-02T21:18:15.587Z,49.70
2022-10-02T21:21:01.262Z,49.80
2022-10-02T21:24:01.831Z,49.70
2022-10-02T21:26:58.756Z,49.80
2022-10-02T21:29:38.868Z,49.70
2022-10-02T21:32:49.709Z,49.60
2022-10-02T21:35:34.032Z,49.80
2022-10-02T21:38:13.776Z,49.90
2022-10-02T21:41:11.428Z,49.80
2022-10-02T21:43:51.844Z,50.00
2022-10-02T21:46:42.300Z,50.10
2022-10-02T21:49:37.662Z,49.90
2022-10-02T21:52:31.400Z,49.90
2022-10-02T21:55:41.134Z,49.90
2022-10-02T21:58:41.527Z,49.70
2022-10-02T22:01:24.893Z,49.90
2022-10-02T22:04:21.838Z,49.80
2022-10-02T22:06:54.513Z,50.00
2022-10-02T22:09:32.239Z,49.70
2022-10-02T22:12:18.823Z,49.70
2022-10-02T22:14:48.033Z,49.40
2022-10-02T22:17:21.419Z,49.70
2022-10-02T22:20:07.407Z,49.70
2022-10-02T22:22:43.199Z,49.70
2022-10-02T22:25:18.119Z,49.80
2022-10-02T22:28:06.106Z,49.60
2022-10-02T22:30:38.201Z,49.50
2022-10-02T22:33:10.912Z,49.50
2022-10-02T22:36:04.597Z,49.50
2022-10-02T22:38:33.192Z,49.40
2022-10-02T22:41:06.779Z,49.60
2022-10-02T22:43:37.233Z,49.40
2022-10-02T22:46:06.221Z,49.50
2022-10-02T22:48:37.161Z,49.40
2022-10-02T22:51:11.218Z,49.40
2022-10-02T22:53:40.358Z,49.40
2022-10-02T22:56:18.614Z,49.00
2022-10-02T22:58:48.216Z,49.00
2022-10-02T23:01:18.236Z,49.00
2022-10-02T23:03:47.341Z,48.90
2022-10-02T23:06:20.090Z,49.00
2022-10-02T23:08:49.930Z,49.00
2022-10-02T23:11:21.115Z,48.90
2022-10-02T23:13:50.745Z,48.90
2022-10-02T23:16:23.572Z,48.80
2022-10-02T23:18:53.047Z,48.90
2022-10-02T23:21:34.110Z,48.80
2022-10-02T23:24:03.407Z,48.80
2022-10-02T23:26:34.260Z,48.90
2022-10-02T23:29:13.266Z,48.90
2022-10-02T23:31:44.284Z,49.00
2022-10-02T23:34:14.532Z,48.80
2022-10-02T23:36:46.583Z,48.70
2022-10-02T23:39:16.462Z,49.00
2022-10-02T23:41:47.959Z,48.70
2022-10-02T23:44:21.470Z,48.60
2022-10-02T23:47:08.031Z,48.70
2022-10-02T23:49:37.826Z,48.40
2022-10-02T23:52:18.208Z,48.50
2022-10-02T23:54:55.537Z,48.40
2022-10-02T23:57:32.835Z,48.10
